createdAt,value
2023-11-30T00:01:53.337Z,99259.05
2023-11-30T00:04:23.000Z,99251.54
2023-11-30T00:07:13.871Z,99250.61
2023-11-30T00:09:42.868Z,99244.67
2023-11-30T00:12:22.080Z,99241.38
2023-11-30T00:14:53.580Z,99241.71
2023-11-30T00:17:32.760Z,99241.73
2023-11-30T00:20:21.881Z,99245.24
2023-11-30T00:23:02.289Z,99240.06
2023-11-30T00:25:41.632Z,99243.23
2023-11-30T00:28:14.034Z,99248.63
2023-11-30T00:30:46.030Z,99248.82
2023-11-30T00:33:17.896Z,99249.02
2023-11-30T00:35:57.116Z,99246.10
2023-11-30T00:38:38.802Z,99245.25
2023-11-30T00:41:17.429Z,99243.02
2023-11-30T00:44:06.648Z,99240.29
2023-11-30T00:46:38.111Z,99241.87
2023-11-30T00:49:07.163Z,99244.14
2023-11-30T00:51:39.496Z,99247.23
2023-11-30T00:54:19.783Z,99242.33
2023-11-30T00:56:49.040Z,99235.69
2023-11-30T00:59:21.356Z,99233.03
2023-11-30T01:01:53.207Z,99233.53
2023-11-30T01:04:25.390Z,99223.09
2023-11-30T01:06:57.414Z,99218.40
2023-11-30T01:09:39.078Z,99218.55
2023-11-30T01:12:28.580Z,99218.70
2023-11-30T01:15:00.709Z,99230.46
2023-11-30T01:17:29.818Z,99226.63
2023-11-30T01:20:01.872Z,99224.84
2023-11-30T01:22:35.768Z,99216.09
2023-11-30T01:25:05.054Z,99211.26
2023-11-30T01:27:54.407Z,99209.73
2023-11-30T01:30:26.648Z,99215.98
2023-11-30T01:32:55.856Z,99215.96
2023-11-30T01:35:30.353Z,99216.10
2023-11-30T01:38:19.606Z,99211.20
2023-11-30T01:40:51.177Z,99211.85
2023-11-30T01:43:40.329Z,99206.66
2023-11-30T01:46:20.408Z,99203.00
2023-11-30T01:49:00.255Z,99196.90
2023-11-30T01:51:39.746Z,99190.60
2023-11-30T01:54:09.605Z,99187.59
2023-11-30T01:56:41.987Z,99183.38
2023-11-30T01:59:16.790Z,99180.60
2023-11-30T02:01:50.007Z,99178.51
2023-11-30T02:04:23.539Z,99171.13
2023-11-30T02:06:55.210Z,99173.80
2023-11-30T02:09:27.026Z,99175.41
2023-11-30T02:11:59.473Z,99175.36
2023-11-30T02:14:33.217Z,99172.31
2023-11-30T02:17:14.880Z,99173.54
2023-11-30T02:19:47.035Z,99171.49
2023-11-30T02:22:19.246Z,99163.35
2023-11-30T02:24:49.335Z,99160.63
2023-11-30T02:27:21.484Z,99158.56
2023-11-30T02:30:00.713Z,99154.78
2023-11-30T02:32:43.790Z,99152.89
2023-11-30T02:35:32.912Z,99144.56
2023-11-30T02:38:01.957Z,99140.54
2023-11-30T02:40:33.986Z,99139.18
2023-11-30T02:43:14.430Z,99142.28
2023-11-30T02:45:53.605Z,99138.61
2023-11-30T02:48:25.571Z,99137.35
2023-11-30T02:51:04.818Z,99138.16
2023-11-30T02:53:53.990Z,99134.46
2023-11-30T02:56:25.833Z,99132.16
2023-11-30T02:58:58.072Z,99126.59
2023-11-30T03:01:48.047Z,99123.64
2023-11-30T03:04:37.380Z,99128.00
2023-11-30T03:07:08.796Z,99126.77
2023-11-30T03:09:37.936Z,99129.88
2023-11-30T03:12:17.774Z,99126.08
2023-11-30T03:14:50.263Z,99122.81
2023-11-30T03:17:23.429Z,99135.68
2023-11-30T03:19:52.588Z,99134.63
2023-11-30T03:22:34.553Z,99128.17
2023-11-30T03:25:07.508Z,99124.52
2023-11-30T03:27:56.752Z,99122.05
2023-11-30T03:30:25.923Z,99118.05
2023-11-30T03:33:15.186Z,99114.00
2023-11-30T03:35:44.253Z,99117.45
2023-11-30T03:38:16.324Z,99117.27
2023-11-30T03:40:45.466Z,99113.96
2023-11-30T03:43:17.633Z,99114.50
2023-11-30T03:45:49.842Z,99114.14
2023-11-30T03:48:39.731Z,99112.39
2023-11-30T03:51:11.905Z,99110.48
2023-11-30T03:53:43.796Z,99108.06
2023-11-30T03:56:33.975Z,99106.54
2023-11-30T03:59:13.269Z,99107.95
2023-11-30T04:02:02.490Z,99106.39
2023-11-30T04:04:31.772Z,99102.05
2023-11-30T04:07:02.321Z,99096.97
2023-11-30T04:09:51.491Z,99093.70
2023-11-30T04:12:40.669Z,99097.41
2023-11-30T04:15:12.956Z,99096.04
2023-11-30T04:18:02.260Z,99097.63
2023-11-30T04:20:42.508Z,99098.52
2023-11-30T04:23:14.528Z,99090.56
2023-11-30T04:25:43.665Z,99083.14
2023-11-30T04:28:33.032Z,99079.90
2023-11-30T04:31:12.465Z,99076.13
2023-11-30T04:33:47.372Z,99071.67
2023-11-30T04:36:27.615Z,99068.95
2023-11-30T04:39:17.096Z,99065.16
2023-11-30T04:41:48.589Z,99066.59
2023-11-30T04:44:37.784Z,99062.13
2023-11-30T04:47:09.845Z,99060.96
2023-11-30T04:49:42.868Z,99062.04
2023-11-30T04:52:14.717Z,99056.31
2023-11-30T04:54:57.765Z,99049.65
2023-11-30T04:57:26.882Z,99054.84
2023-11-30T05:00:17.232Z,99051.08
2023-11-30T05:03:06.629Z,99044.38
2023-11-30T05:05:55.927Z,99038.70
2023-11-30T05:08:37.579Z,99041.84
2023-11-30T05:11:18.019Z,99041.36
2023-11-30T05:13:47.020Z,99043.80
2023-11-30T05:16:16.116Z,99052.64
2023-11-30T05:18:45.295Z,99058.52
2023-11-30T05:21:16.993Z,99057.10
2023-11-30T05:24:06.520Z,99050.34
2023-11-30T05:26:35.527Z,99044.58
2023-11-30T05:29:24.692Z,99046.51
2023-11-30T05:32:13.877Z,99051.02
2023-11-30T05:34:52.862Z,99047.92
2023-11-30T05:37:24.919Z,99050.39
2023-11-30T05:39:56.902Z,99047.50
2023-11-30T05:42:37.293Z,99052.60
2023-11-30T05:45:22.752Z,99052.18
2023-11-30T05:47:52.028Z,99050.53
2023-11-30T05:50:21.587Z,99046.45
2023-11-30T05:52:50.532Z,99044.27
2023-11-30T05:55:39.743Z,99038.84
2023-11-30T05:58:29.179Z,99030.66
2023-11-30T06:01:10.096Z,99028.92
2023-11-30T06:03:59.434Z,99024.91
2023-11-30T06:06:31.885Z,99021.13
2023-11-30T06:09:10.971Z,99011.95
2023-11-30T06:12:00.339Z,99008.00
2023-11-30T06:14:29.353Z,99009.39
2023-11-30T06:17:08.525Z,99007.52
2023-11-30T06:19:47.787Z,99008.27
2023-11-30T06:22:37.225Z,99007.94
2023-11-30T06:25:26.520Z,99005.15
2023-11-30T06:28:09.436Z,99004.40
2023-11-30T06:30:58.792Z,98995.20
2023-11-30T06:33:55.555Z,98991.73
2023-11-30T06:36:37.543Z,98992.05
2023-11-30T06:39:17.814Z,98983.37
2023-11-30T06:41:52.368Z,98981.94
2023-11-30T06:44:22.796Z,98985.68
2023-11-30T06:47:01.034Z,98979.88
2023-11-30T06:49:50.362Z,98973.56
2023-11-30T06:52:29.425Z,98971.89
2023-11-30T06:55:18.581Z,98976.33
2023-11-30T06:58:07.803Z,98978.98
2023-11-30T07:00:37.347Z,98982.30
2023-11-30T07:03:29.697Z,98978.39
2023-11-30T07:06:10.654Z,98979.93
2023-11-30T07:08:43.041Z,98985.82
2023-11-30T07:11:32.324Z,98986.16
2023-11-30T07:14:14.150Z,98982.87
2023-11-30T07:16:54.474Z,98980.81
2023-11-30T07:19:43.961Z,98987.95
2023-11-30T07:22:16.791Z,98985.73
2023-11-30T07:24:48.600Z,98987.27
2023-11-30T07:27:28.888Z,98993.48
2023-11-30T07:30:18.308Z,98991.88
2023-11-30T07:33:07.536Z,98995.61
2023-11-30T07:35:57.028Z,98996.75
2023-11-30T07:38:37.660Z,98996.81
2023-11-30T07:41:18.704Z,98995.27
2023-11-30T07:44:07.985Z,98990.09
2023-11-30T07:46:50.076Z,98982.45
2023-11-30T07:49:27.544Z,98988.48
2023-11-30T07:51:59.071Z,98991.45
2023-11-30T07:54:49.038Z,98999.77
2023-11-30T07:57:20.777Z,99000.01
2023-11-30T07:59:55.382Z,99000.45
2023-11-30T08:02:44.992Z,99005.91
2023-11-30T08:05:26.083Z,99007.05
2023-11-30T08:08:05.955Z,98997.43
2023-11-30T08:10:56.958Z,98991.69
2023-11-30T08:13:46.914Z,98993.93
2023-11-30T08:16:35.584Z,98999.82
2023-11-30T08:19:25.270Z,99017.92
2023-11-30T08:22:15.204Z,99025.62
2023-11-30T08:25:06.532Z,99023.07
2023-11-30T08:27:39.105Z,99014.39
2023-11-30T08:30:10.852Z,99011.24
2023-11-30T08:32:50.073Z,99002.02
2023-11-30T08:35:39.670Z,98995.81
2023-11-30T08:38:13.252Z,98997.77
2023-11-30T08:40:45.238Z,99000.59
2023-11-30T08:43:34.810Z,98997.55
2023-11-30T08:46:14.097Z,98987.71
2023-11-30T08:49:03.441Z,98981.31
2023-11-30T08:51:45.744Z,98973.55
2023-11-30T08:54:15.670Z,98979.75
2023-11-30T08:56:54.042Z,98980.92
2023-11-30T08:59:32.483Z,98982.41
2023-11-30T09:02:09.019Z,98988.28
2023-11-30T09:04:48.410Z,98984.91
2023-11-30T09:07:31.835Z,98980.99
2023-11-30T09:10:03.928Z,98980.21
2023-11-30T09:12:46.739Z,98987.11
2023-11-30T09:15:36.176Z,98984.52
2023-11-30T09:18:16.512Z,98979.56
2023-11-30T09:21:07.321Z,98981.75
2023-11-30T09:23:57.345Z,98977.94
2023-11-30T09:26:33.279Z,98974.77
2023-11-30T09:29:15.317Z,98972.81
2023-11-30T09:31:57.746Z,98957.84
2023-11-30T09:34:39.181Z,98951.08
2023-11-30T09:37:08.495Z,98946.86
2023-11-30T09:39:57.755Z,98939.80
2023-11-30T09:42:47.296Z,98942.91
2023-11-30T09:45:16.865Z,98951.59
2023-11-30T09:47:46.179Z,98948.09
2023-11-30T09:50:26.560Z,98946.38
2023-11-30T09:53:05.701Z,98951.38
2023-11-30T09:55:47.683Z,98951.48
2023-11-30T09:58:19.018Z,98955.35
2023-11-30T10:01:09.802Z,98965.77
2023-11-30T10:03:50.505Z,98964.04
2023-11-30T10:06:33.836Z,98967.23
2023-11-30T10:09:23.287Z,98967.52
2023-11-30T10:12:03.833Z,98963.20
2023-11-30T10:15:02.254Z,98965.16
2023-11-30T10:17:34.428Z,98958.10
2023-11-30T10:20:12.442Z,98955.73
2023-11-30T10:22:49.773Z,98953.58
2023-11-30T10:25:26.627Z,98943.89
2023-11-30T10:28:05.217Z,98941.38
2023-11-30T10:30:38.786Z,98936.94
2023-11-30T10:33:22.864Z,98932.17
2023-11-30T10:36:06.705Z,98922.02
2023-11-30T10:38:40.238Z,98919.52
2023-11-30T10:41:32.430Z,98916.94
2023-11-30T10:44:21.373Z,98910.22
2023-11-30T10:47:02.138Z,98904.09
2023-11-30T10:49:43.896Z,98904.66
2023-11-30T10:52:16.836Z,98906.67
2023-11-30T10:55:10.502Z,98905.94
2023-11-30T10:57:42.581Z,98901.75
2023-11-30T11:00:25.371Z,98898.55
2023-11-30T11:03:12.121Z,98893.77
2023-11-30T11:05:59.983Z,98892.81
2023-11-30T11:08:34.142Z,98894.19
2023-11-30T11:11:09.999Z,98895.35
2023-11-30T11:13:56.192Z,98896.30
2023-11-30T11:16:42.469Z,98890.19
2023-11-30T11:19:33.863Z,98883.91
2023-11-30T11:22:03.513Z,98875.52
2023-11-30T11:24:41.700Z,98872.60
2023-11-30T11:27:13.196Z,98873.81
2023-11-30T11:29:45.215Z,98868.15
2023-11-30T11:32:21.891Z,98864.26
2023-11-30T11:34:52.463Z,98867.71
2023-11-30T11:37:23.956Z,98873.61
2023-11-30T11:39:53.434Z,98874.75
2023-11-30T11:42:25.566Z,98873.18
2023-11-30T11:44:54.857Z,98874.30
2023-11-30T11:47:24.100Z,98871.03
2023-11-30T11:49:53.450Z,98869.33
2023-11-30T11:52:26.399Z,98865.30
2023-11-30T11:55:01.733Z,98863.71
2023-11-30T11:57:41.470Z,98859.83
2023-11-30T12:00:18.307Z,98855.30
2023-11-30T12:03:09.201Z,98852.00
2023-11-30T12:06:00.276Z,98846.50
2023-11-30T12:08:38.543Z,98838.84
2023-11-30T12:11:20.913Z,98837.29
2023-11-30T12:14:00.562Z,98831.60
2023-11-30T12:16:40.000Z,98830.48
2023-11-30T12:19:23.043Z,98828.66
2023-11-30T12:21:54.596Z,98825.57
2023-11-30T12:24:24.413Z,98821.83
2023-11-30T12:27:03.539Z,98819.61
2023-11-30T12:29:32.687Z,98813.99
2023-11-30T12:32:04.444Z,98809.14
2023-11-30T12:34:38.158Z,98812.41
2023-11-30T12:37:17.214Z,98809.52
2023-11-30T12:39:57.413Z,98812.41
2023-11-30T12:42:28.793Z,98817.95
2023-11-30T12:45:12.550Z,98812.48
2023-11-30T12:47:50.958Z,98808.11
2023-11-30T12:50:21.809Z,98814.94
2023-11-30T12:52:56.574Z,98811.30
2023-11-30T12:55:28.218Z,98830.13
2023-11-30T12:57:58.019Z,98833.43
2023-11-30T13:00:38.395Z,98834.22
2023-11-30T13:03:10.785Z,98836.98
2023-11-30T13:05:42.130Z,98839.20
2023-11-30T13:08:14.242Z,98839.36
2023-11-30T13:10:46.002Z,98838.52
2023-11-30T13:13:26.054Z,98835.21
2023-11-30T13:16:02.147Z,98827.95
2023-11-30T13:18:32.084Z,98823.05
2023-11-30T13:21:01.453Z,98823.98
2023-11-30T13:23:33.090Z,98821.16
2023-11-30T13:26:02.023Z,98825.30
2023-11-30T13:28:37.742Z,98827.65
2023-11-30T13:31:12.571Z,98825.16
2023-11-30T13:33:52.113Z,98821.88
2023-11-30T13:36:21.394Z,98822.20
2023-11-30T13:38:53.653Z,98820.15
2023-11-30T13:41:24.799Z,98812.35
2023-11-30T13:43:54.170Z,98805.78
2023-11-30T13:46:34.647Z,98799.58
2023-11-30T13:49:24.454Z,98801.90
2023-11-30T13:51:54.177Z,98804.48
2023-11-30T13:54:32.371Z,98804.80
2023-11-30T13:57:08.286Z,98808.11
2023-11-30T13:59:37.458Z,98815.17
2023-11-30T14:02:09.076Z,98817.54
2023-11-30T14:04:51.695Z,98816.92
2023-11-30T14:07:21.526Z,98815.53
2023-11-30T14:09:53.364Z,98808.86
2023-11-30T14:12:42.970Z,98821.95
2023-11-30T14:15:17.288Z,98816.79
2023-11-30T14:17:57.776Z,98818.08
2023-11-30T14:20:40.880Z,98821.02
2023-11-30T14:23:10.406Z,98820.31
2023-11-30T14:25:42.680Z,98818.17
2023-11-30T14:28:16.387Z,98814.37
2023-11-30T14:30:46.287Z,98813.73
2023-11-30T14:33:20.691Z,98817.86
2023-11-30T14:35:55.044Z,98814.40
2023-11-30T14:38:36.520Z,98809.42
2023-11-30T14:41:08.129Z,98817.00
2023-11-30T14:43:46.210Z,98818.77
2023-11-30T14:46:18.211Z,98828.84
2023-11-30T14:49:08.452Z,98834.57
2023-11-30T14:51:52.434Z,98837.59
2023-11-30T14:54:21.742Z,98841.87
2023-11-30T14:57:12.494Z,98845.43
2023-11-30T14:59:45.139Z,98844.11
2023-11-30T15:02:14.455Z,98844.35
2023-11-30T15:04:43.702Z,98842.84
2023-11-30T15:07:24.425Z,98840.45
2023-11-30T15:09:53.722Z,98841.70
2023-11-30T15:12:43.096Z,98841.65
2023-11-30T15:15:32.522Z,98842.12
2023-11-30T15:18:01.858Z,98842.89
2023-11-30T15:20:44.203Z,98839.37
2023-11-30T15:23:15.703Z,98836.02
2023-11-30T15:25:55.644Z,98828.33
2023-11-30T15:28:37.312Z,98815.00
2023-11-30T15:31:13.779Z,98799.95
2023-11-30T15:33:43.040Z,98793.08
2023-11-30T15:36:15.428Z,98802.15
2023-11-30T15:39:12.858Z,98837.02
2023-11-30T15:41:51.773Z,98857.41
2023-11-30T15:44:21.078Z,98863.08
2023-11-30T15:47:01.726Z,98863.08
2023-11-30T15:49:51.120Z,98856.66
2023-11-30T15:52:31.745Z,98852.75
2023-11-30T15:55:21.655Z,98840.88
2023-11-30T15:58:02.444Z,98836.99
2023-11-30T16:00:40.580Z,98837.12
2023-11-30T16:03:21.138Z,98829.78
2023-11-30T16:06:01.583Z,98833.77
2023-11-30T16:08:51.143Z,98843.94
2023-11-30T16:11:40.317Z,98856.52
2023-11-30T16:14:29.598Z,98871.14
2023-11-30T16:17:01.871Z,98878.85
2023-11-30T16:19:42.426Z,98882.70
2023-11-30T16:22:31.723Z,98897.48
2023-11-30T16:25:04.370Z,98899.04
2023-11-30T16:27:53.601Z,98904.96
2023-11-30T16:30:23.039Z,98897.98
2023-11-30T16:33:11.660Z,98885.86
2023-11-30T16:36:01.754Z,98886.97
2023-11-30T16:38:40.017Z,98895.02
2023-11-30T16:41:15.189Z,98892.13
2023-11-30T16:43:51.773Z,98903.48
2023-11-30T16:46:24.134Z,98908.56
2023-11-30T16:49:04.018Z,98907.27
2023-11-30T16:51:38.130Z,98901.60
2023-11-30T16:54:12.669Z,98897.44
2023-11-30T16:56:44.919Z,98888.94
2023-11-30T16:59:34.309Z,98887.09
2023-11-30T17:02:23.570Z,98885.05
2023-11-30T17:04:55.971Z,98871.90
2023-11-30T17:07:37.999Z,98874.34
2023-11-30T17:10:12.456Z,98872.81
2023-11-30T17:13:01.730Z,98866.58
2023-11-30T17:15:53.190Z,98875.78
2023-11-30T17:18:36.460Z,98871.98
2023-11-30T17:21:15.789Z,98878.01
2023-11-30T17:23:47.134Z,98880.83
2023-11-30T17:26:36.393Z,98873.28
2023-11-30T17:29:19.501Z,98873.27
2023-11-30T17:32:09.180Z,98867.23
2023-11-30T17:34:38.584Z,98867.71
2023-11-30T17:37:28.004Z,98876.70
2023-11-30T17:40:11.760Z,98878.26
2023-11-30T17:42:44.180Z,98881.17
2023-11-30T17:45:21.939Z,98877.50
2023-11-30T17:48:11.261Z,98877.81
2023-11-30T17:50:50.748Z,98869.98
2023-11-30T17:53:39.970Z,98875.78
2023-11-30T17:56:29.349Z,98884.86
2023-11-30T17:59:18.659Z,98889.27
2023-11-30T18:02:08.187Z,98887.46
2023-11-30T18:04:57.649Z,98891.53
2023-11-30T18:07:38.441Z,98895.80
2023-11-30T18:10:08.149Z,98901.98
2023-11-30T18:12:40.231Z,98903.97
2023-11-30T18:15:10.290Z,98882.79
2023-11-30T18:17:47.618Z,98872.16
2023-11-30T18:20:19.946Z,98893.58
2023-11-30T18:23:01.804Z,98881.05
2023-11-30T18:25:33.367Z,98875.70
2023-11-30T18:28:13.629Z,98876.81
2023-11-30T18:31:12.226Z,98872.73
2023-11-30T18:34:00.576Z,98881.75
2023-11-30T18:36:32.131Z,98881.08
2023-11-30T18:39:01.255Z,98879.84
2023-11-30T18:41:30.462Z,98895.60
2023-11-30T18:44:20.300Z,98898.47
2023-11-30T18:46:59.525Z,98902.23
2023-11-30T18:49:42.952Z,98906.68
2023-11-30T18:52:32.125Z,98912.00
2023-11-30T18:55:21.411Z,98902.30
2023-11-30T18:57:51.181Z,98904.40
2023-11-30T19:00:34.300Z,98894.91
2023-11-30T19:03:23.765Z,98889.54
2023-11-30T19:06:06.518Z,98887.65
2023-11-30T19:08:55.751Z,98896.02
2023-11-30T19:11:37.463Z,98906.07
2023-11-30T19:14:24.282Z,98912.16
2023-11-30T19:16:56.557Z,98915.52
2023-11-30T19:19:39.939Z,98920.39
2023-11-30T19:22:18.809Z,98925.98
2023-11-30T19:24:50.702Z,98926.20
2023-11-30T19:27:40.114Z,98922.22
2023-11-30T19:30:16.116Z,98920.82
2023-11-30T19:33:04.433Z,98917.02
2023-11-30T19:35:36.553Z,98915.10
2023-11-30T19:38:16.454Z,98914.94
2023-11-30T19:40:57.657Z,98911.80
2023-11-30T19:43:46.973Z,98919.98
2023-11-30T19:46:38.053Z,98915.00
2023-11-30T19:49:27.448Z,98913.64
2023-11-30T19:51:56.506Z,98917.66
2023-11-30T19:54:45.839Z,98919.45
2023-11-30T19:57:31.701Z,98918.13
2023-11-30T20:00:12.625Z,98927.55
2023-11-30T20:02:54.798Z,98927.45
2023-11-30T20:05:44.183Z,98930.66
2023-11-30T20:08:24.546Z,98930.56
2023-11-30T20:11:07.676Z,98934.32
2023-11-30T20:13:39.571Z,98942.04
2023-11-30T20:16:18.115Z,98939.53
2023-11-30T20:19:07.526Z,98937.68
2023-11-30T20:21:49.922Z,98947.65
2023-11-30T20:24:29.225Z,98948.73
2023-11-30T20:27:11.461Z,98935.77
2023-11-30T20:29:59.576Z,98932.92
2023-11-30T20:32:49.060Z,98937.98
2023-11-30T20:35:38.537Z,98935.23
2023-11-30T20:38:29.455Z,98939.80
2023-11-30T20:40:58.795Z,98938.66
2023-11-30T20:43:36.582Z,98938.70
2023-11-30T20:46:09.107Z,98941.05
2023-11-30T20:48:48.483Z,98944.91
2023-11-30T20:51:30.521Z,98956.25
2023-11-30T20:54:19.921Z,98963.89
2023-11-30T20:57:09.880Z,98965.29
2023-11-30T20:59:52.129Z,98967.15
2023-11-30T21:02:21.435Z,98965.34
2023-11-30T21:05:11.181Z,98961.27
2023-11-30T21:07:40.286Z,98962.91
2023-11-30T21:10:29.651Z,98963.67
2023-11-30T21:13:20.617Z,98958.58
2023-11-30T21:15:52.126Z,98947.63
2023-11-30T21:18:24.255Z,98930.54
2023-11-30T21:21:13.881Z,98926.23
2023-11-30T21:23:43.684Z,98929.59
2023-11-30T21:26:33.102Z,98949.23
2023-11-30T21:29:09.724Z,98950.75
2023-11-30T22:03:22.142Z,98947.00
2023-11-30T22:06:04.675Z,98953.91
2023-11-30T22:08:51.436Z,98958.34
2023-11-30T22:11:32.087Z,98955.16
2023-11-30T22:14:21.314Z,98957.32
2023-11-30T22:16:53.294Z,98958.73
2023-11-30T22:19:42.562Z,98963.05
2023-11-30T22:22:21.927Z,98965.51
2023-11-30T22:25:11.480Z,98971.05
2023-11-30T22:27:43.981Z,98970.39
2023-11-30T22:30:33.332Z,98970.63
2023-11-30T22:33:22.724Z,98960.30
2023-11-30T22:36:12.881Z,98954.31
2023-11-30T22:39:02.207Z,98958.50
2023-11-30T22:41:51.737Z,98960.23
2023-11-30T22:44:39.956Z,98952.60
2023-11-30T22:47:28.982Z,98935.62
2023-11-30T22:50:11.504Z,98925.80
2023-11-30T22:52:52.373Z,98919.36
2023-11-30T22:55:41.914Z,98927.32
2023-11-30T22:58:31.242Z,98932.66
2023-11-30T23:01:22.069Z,98940.58
2023-11-30T23:04:10.272Z,98943.55
2023-11-30T23:07:00.287Z,98945.26
2023-11-30T23:09:49.510Z,98943.52
2023-11-30T23:12:21.767Z,98963.05
2023-11-30T23:15:03.659Z,98979.27
2023-11-30T23:17:38.178Z,98988.73
2023-11-30T23:20:27.453Z,98990.56
2023-11-30T23:23:16.930Z,99001.53
2023-11-30T23:26:06.330Z,98999.69
2023-11-30T23:28:54.207Z,98994.91
2023-11-30T23:31:26.453Z,98984.45
2023-11-30T23:34:08.465Z,98979.88
2023-11-30T23:36:57.705Z,98987.25
2023-11-30T23:39:47.017Z,98987.23
2023-11-30T23:42:36.502Z,98989.30
2023-11-30T23:45:26.065Z,98980.95
2023-11-30T23:48:15.446Z,98969.30
2023-11-30T23:51:05.027Z,98954.38
2023-11-30T23:53:54.398Z,98945.88
2023-11-30T23:56:43.596Z,98951.74
2023-11-30T23:59:12.877Z,98966.40
